Time;durP1;ratioP1;P1;durP2;ratioP2;P2;SDS_P1;SDS_P2;PMS_P1;PMS_P2;Temp;Humidity;BMP_temperature;BMP_pressure;BME280_temperature;BME280_humidity;BME280_pressure;Samples;Min_cycle;Max_cycle;Signal;HPM_P1;HPM_P2
2022/05/29 00:01:58;;;;;;;5.90;2.60;;;;;;;10.29;71.69;99199.50;1733504;82;21052;-82
2022/05/29 00:04:25;;;;;;;2.98;2.60;;;;;;;10.27;71.80;99198.71;1733694;82;21017;-82
2022/05/29 00:06:53;;;;;;;4.65;2.62;;;;;;;10.24;71.85;99202.33;1733663;82;21009;-82
2022/05/29 00:09:28;;;;;;;5.00;2.72;;;;;;;10.22;71.95;99203.70;1733909;82;21115;-83
2022/05/29 00:11:53;;;;;;;5.53;2.60;;;;;;;10.22;72.08;99204.14;1731712;81;21564;-82
2022/05/29 00:14:20;;;;;;;4.35;2.40;;;;;;;10.23;71.93;99222.95;1733872;82;21726;-83
2022/05/29 00:16:46;;;;;;;3.08;2.50;;;;;;;10.24;72.09;99220.73;1733665;82;21512;-83
2022/05/29 00:19:13;;;;;;;5.28;2.70;;;;;;;10.24;72.18;99215.48;1733729;82;21048;-81
2022/05/29 00:21:40;;;;;;;7.37;2.62;;;;;;;10.22;72.19;99201.51;1734187;82;21183;-82
2022/05/29 00:24:07;;;;;;;6.97;2.83;;;;;;;10.26;72.23;99207.06;1733604;82;21134;-82
2022/05/29 00:26:34;;;;;;;4.37;2.70;;;;;;;10.30;72.39;99208.65;1733567;82;21115;-82
2022/05/29 00:29:00;;;;;;;3.05;2.67;;;;;;;10.31;72.68;99206.43;1733642;82;20973;-82
2022/05/29 00:31:27;;;;;;;3.45;2.52;;;;;;;10.32;72.35;99209.94;1733717;82;21009;-82
2022/05/29 00:33:54;;;;;;;6.90;3.20;;;;;;;10.34;72.11;99206.34;1733894;82;21072;-82
2022/05/29 00:36:20;;;;;;;10.35;2.90;;;;;;;10.37;72.09;99211.94;1733472;82;22172;-82
2022/05/29 00:38:47;;;;;;;7.50;2.65;;;;;;;10.37;71.96;99208.87;1733595;82;21068;-82
2022/05/29 00:41:35;;;;;;;4.15;2.08;;;;;;;10.38;71.81;99209.25;1733843;82;21622;-81
2022/05/29 00:44:18;;;;;;;4.95;2.62;;;;;;;10.41;71.85;99205.19;1733803;82;21076;-83
2022/05/29 00:46:48;;;;;;;4.67;2.58;;;;;;;10.43;71.80;99205.59;1733707;82;21056;-82
2022/05/29 00:49:17;;;;;;;1.95;1.85;;;;;;;10.40;71.83;99211.35;1732698;82;21731;-80
2022/05/29 00:51:51;;;;;;;4.50;2.35;;;;;;;10.38;71.85;99202.67;1746873;82;20979;-82
2022/05/29 00:54:19;;;;;;;6.17;2.35;;;;;;;10.39;71.96;99208.34;1747393;82;21050;-82
2022/05/29 00:56:45;;;;;;;3.17;2.42;;;;;;;10.38;71.95;99202.67;1747742;82;21107;-82
2022/05/29 00:59:19;;;;;;;2.52;2.33;;;;;;;10.40;71.95;99208.72;1747452;82;21086;-82
2022/05/29 01:01:46;;;;;;;4.50;2.90;;;;;;;10.43;71.90;99218.28;1747551;82;21133;-82
2022/05/29 01:04:13;;;;;;;5.05;2.87;;;;;;;10.45;71.97;99222.17;1746185;82;21108;-82
2022/05/29 01:06:39;;;;;;;4.83;2.25;;;;;;;10.43;71.96;99227.95;1734067;81;21126;-82
2022/05/29 01:09:07;;;;;;;2.17;2.00;;;;;;;10.41;71.75;99220.97;1733875;82;21594;-83
2022/05/29 01:11:48;;;;;;;2.83;2.30;;;;;;;10.41;71.58;99222.75;1738672;81;21032;-82
2022/05/29 01:14:38;;;;;;;2.98;2.20;;;;;;;10.40;71.60;99224.50;1741186;82;21302;-83
2022/05/29 01:17:20;;;;;;;6.55;2.20;;;;;;;10.38;71.43;99218.45;1741879;81;21134;-82
2022/05/29 01:20:06;;;;;;;2.17;1.87;;;;;;;10.37;71.45;99214.13;1741823;82;20968;-82
2022/05/29 01:23:15;;;;;;;3.72;1.67;;;;;;;10.38;71.50;99220.23;1741633;82;21059;-82
2022/05/29 01:26:10;;;;;;;2.58;2.00;;;;;;;10.36;71.57;99220.29;1741888;82;21027;-82
2022/05/29 01:28:57;;;;;;;3.83;2.12;;;;;;;10.36;71.61;99228.65;1741910;82;21115;-82
2022/05/29 01:31:37;;;;;;;2.77;2.15;;;;;;;10.31;71.85;99230.09;1741539;82;21056;-83
2022/05/29 01:34:27;;;;;;;3.35;2.22;;;;;;;10.28;71.97;99229.36;1741902;82;21573;-82
2022/05/29 01:37:23;;;;;;;4.12;1.80;;;;;;;10.26;72.08;99234.67;1741979;82;21066;-82
2022/05/29 01:40:19;;;;;;;2.72;1.98;;;;;;;10.24;71.98;99235.20;1742162;82;21119;-82
2022/05/29 01:43:00;;;;;;;6.28;2.30;;;;;;;10.23;71.83;99238.27;1741811;82;21149;-83
2022/05/29 01:45:53;;;;;;;5.75;1.72;;;;;;;10.25;71.96;99251.36;1741632;82;21617;-82
2022/05/29 01:48:12;;;;;;;3.67;1.62;;;;;;;10.22;71.95;99247.52;1739417;82;21508;-82
2022/05/29 01:50:43;;;;;;;5.03;2.05;;;;;;;10.19;72.16;99252.92;1741838;82;21067;-82
2022/05/29 01:53:21;;;;;;;2.15;1.95;;;;;;;10.18;72.04;99251.19;1742216;82;21501;-82
2022/05/29 01:55:51;;;;;;;4.08;2.30;;;;;;;10.16;72.20;99245.14;1740644;81;21646;-82
2022/05/29 01:58:30;;;;;;;1.87;1.70;;;;;;;10.16;72.09;99237.25;1741706;82;21079;-82
2022/05/29 02:00:59;;;;;;;3.42;1.90;;;;;;;10.14;71.83;99238.63;1741880;82;21052;-82
2022/05/29 02:03:35;;;;;;;3.92;1.90;;;;;;;10.18;71.73;99240.68;1741977;82;21593;-83
2022/05/29 02:06:14;;;;;;;3.55;1.87;;;;;;;10.20;71.41;99237.09;1741855;82;21626;-82
2022/05/29 02:08:49;;;;;;;3.58;1.60;;;;;;;10.21;71.16;99241.41;1741991;82;21693;-81
2022/05/29 02:11:24;;;;;;;1.85;1.60;;;;;;;10.21;71.12;99244.52;1743878;81;21897;-83
2022/05/29 02:14:07;;;;;;;8.90;1.63;;;;;;;10.21;71.04;99249.77;1746863;82;21092;-82
2022/05/29 02:16:49;;;;;;;4.83;1.62;;;;;;;10.18;70.83;99255.14;1747326;82;21023;-83
2022/05/29 02:19:28;;;;;;;2.15;1.70;;;;;;;10.18;70.99;99261.24;1748044;82;21087;-83
2022/05/29 02:22:05;;;;;;;5.05;1.70;;;;;;;10.17;71.04;99270.06;1747939;82;22203;-83
2022/05/29 02:24:36;;;;;;;2.42;1.32;;;;;;;10.16;71.02;99263.08;1747938;82;21067;-84
2022/05/29 02:27:07;;;;;;;4.20;1.60;;;;;;;10.16;70.73;99266.17;1747725;82;21114;-83
2022/05/29 02:29:33;;;;;;;4.45;1.72;;;;;;;10.16;70.55;99276.69;1747959;82;21090;-82
2022/05/29 02:32:15;;;;;;;3.25;1.75;;;;;;;10.16;70.61;99273.59;1748090;82;21015;-83
2022/05/29 02:35:06;;;;;;;2.17;1.62;;;;;;;10.17;70.49;99269.19;1747840;82;21950;-83
2022/05/29 02:37:43;;;;;;;2.00;1.30;;;;;;;10.15;69.61;99278.44;1747746;82;21111;-82
2022/05/29 02:40:21;;;;;;;2.27;1.60;;;;;;;10.15;69.61;99281.53;1747903;82;21074;-83
2022/05/29 02:43:10;;;;;;;2.10;1.52;;;;;;;10.13;69.16;99280.73;1743703;82;21138;-83
2022/05/29 02:46:12;;;;;;;3.83;1.62;;;;;;;10.12;69.16;99277.70;1747857;82;20989;-83
2022/05/29 02:49:00;;;;;;;3.10;1.30;;;;;;;10.11;69.38;99272.06;1747801;82;21791;-83
2022/05/29 02:51:38;;;;;;;3.25;1.55;;;;;;;10.10;69.67;99284.80;1747666;82;21055;-83
2022/05/29 02:54:05;;;;;;;1.60;1.30;;;;;;;10.08;69.79;99277.42;1748079;82;21036;-83
2022/05/29 02:56:32;;;;;;;1.77;1.45;;;;;;;10.06;70.06;99270.06;1747673;82;21067;-83
2022/05/29 02:58:59;;;;;;;5.08;1.45;;;;;;;10.04;70.11;99270.96;1748156;82;21130;-83
2022/05/29 03:01:46;;;;;;;5.10;1.32;;;;;;;10.02;70.35;99267.53;1747773;82;21150;-83
2022/05/29 03:04:56;;;;;;;1.87;1.30;;;;;;;10.02;70.54;99276.73;1747658;82;21023;-84
2022/05/29 03:07:43;;;;;;;1.35;1.25;;;;;;;10.00;70.87;99265.43;1747823;82;21633;-85
2022/05/29 03:10:18;;;;;;;2.58;1.10;;;;;;;9.98;70.80;99269.86;1748011;82;21052;-84
2022/05/29 03:13:15;;;;;;;6.72;1.40;;;;;;;9.97;70.90;99252.83;1747362;81;21089;-85
2022/05/29 03:16:06;;;;;;;1.40;1.30;;;;;;;9.98;71.40;99259.81;1747947;82;21476;-83
2022/05/29 03:19:02;;;;;;;1.52;1.27;;;;;;;9.97;71.19;99254.14;1747534;82;21051;-84
2022/05/29 03:21:56;;;;;;;1.75;1.22;;;;;;;9.98;71.26;99243.58;1747799;82;21078;-82
2022/05/29 03:24:45;;;;;;;1.12;1.00;;;;;;;9.99;71.40;99247.93;1747984;82;21005;-82
2022/05/29 03:27:43;;;;;;;1.40;1.30;;;;;;;10.01;71.13;99257.08;1747845;82;21043;-83
2022/05/29 03:30:20;;;;;;;1.80;1.17;;;;;;;9.99;71.52;99259.75;1746784;82;21495;-84
2022/05/29 03:32:50;;;;;;;1.17;1.00;;;;;;;9.98;71.46;99256.72;1747820;82;21000;-82
2022/05/29 03:35:46;;;;;;;1.30;1.00;;;;;;;9.98;71.57;99265.91;1747716;82;21496;-83
2022/05/29 03:38:13;;;;;;;2.47;1.20;;;;;;;9.99;71.67;99266.33;1745012;82;21118;-83
2022/05/29 03:40:40;;;;;;;1.75;1.07;;;;;;;10.05;71.55;99269.17;1747609;82;21071;-84
2022/05/29 03:43:07;;;;;;;1.22;1.20;;;;;;;10.08;71.77;99271.70;1747734;82;21195;-83
2022/05/29 03:45:35;;;;;;;1.17;1.17;;;;;;;10.11;71.97;99277.31;1747686;82;21048;-83
2022/05/29 03:48:02;;;;;;;3.90;1.40;;;;;;;10.15;71.88;99281.53;1747907;82;21062;-82
2022/05/29 03:50:29;;;;;;;3.05;1.42;;;;;;;10.16;71.72;99286.73;1747890;82;21063;-83
2022/05/29 03:52:55;;;;;;;1.95;1.10;;;;;;;10.18;71.77;99292.80;1747706;82;21079;-84
2022/05/29 03:55:24;;;;;;;9.05;1.20;;;;;;;10.21;71.97;99289.21;1747689;82;21134;-83
2022/05/29 03:57:51;;;;;;;2.83;1.40;;;;;;;10.27;71.90;99296.88;1747641;82;20988;-83
2022/05/29 04:00:18;;;;;;;2.00;1.17;;;;;;;10.30;71.82;99302.47;1747530;82;21047;-84
2022/05/29 04:02:45;;;;;;;2.30;1.12;;;;;;;10.32;71.28;99312.06;1747560;82;21012;-83
2022/05/29 04:05:22;;;;;;;2.98;1.22;;;;;;;10.35;71.18;99313.70;1747755;82;21020;-83
2022/05/29 04:13:26;;;;;;;1.25;1.10;;;;;;;10.46;71.23;99317.27;1747774;81;21067;-82
2022/05/29 04:15:52;;;;;;;2.60;1.30;;;;;;;10.58;70.51;99312.39;1747678;82;21055;-83
2022/05/29 04:18:23;;;;;;;1.40;1.30;;;;;;;10.70;69.80;99311.06;1748073;82;21043;-83
2022/05/29 04:20:54;;;;;;;1.85;1.20;;;;;;;10.75;69.38;99314.37;1747803;82;21174;-84
2022/05/29 04:23:21;;;;;;;1.98;1.32;;;;;;;10.81;69.09;99315.92;1747625;82;21055;-82
2022/05/29 04:25:47;;;;;;;2.37;1.20;;;;;;;10.81;68.81;99319.88;1747870;82;21429;-83
2022/05/29 04:28:14;;;;;;;3.33;1.65;;;;;;;10.83;68.92;99324.61;1747663;82;21052;-83
2022/05/29 04:30:40;;;;;;;2.15;1.25;;;;;;;10.84;68.90;99328.09;1747765;82;21087;-82
2022/05/29 04:33:07;;;;;;;2.70;1.30;;;;;;;10.86;69.05;99326.25;1747550;82;21196;-84
2022/05/29 04:35:42;;;;;;;1.90;1.22;;;;;;;10.86;69.01;99328.89;1747287;82;21099;-83
2022/05/29 04:38:10;;;;;;;2.10;1.27;;;;;;;10.83;69.12;99325.08;1748253;82;21538;-82
2022/05/29 04:40:41;;;;;;;2.75;1.40;;;;;;;10.85;69.34;99327.19;1748275;82;21047;-83
2022/05/29 04:43:10;;;;;;;4.55;1.20;;;;;;;10.84;69.25;99328.09;1748644;81;21109;-83
2022/05/29 04:45:39;;;;;;;1.90;1.12;;;;;;;10.88;69.39;99332.34;1748393;81;21135;-83
2022/05/29 04:48:08;;;;;;;3.33;1.20;;;;;;;10.94;69.30;99332.08;1748425;82;21043;-83
2022/05/29 04:50:35;;;;;;;4.87;1.60;;;;;;;11.00;69.25;99338.43;1748212;82;21585;-82
2022/05/29 04:53:02;;;;;;;2.67;1.42;;;;;;;11.03;68.84;99342.27;1748634;81;21030;-82
2022/05/29 04:55:30;;;;;;;1.95;1.40;;;;;;;11.04;68.09;99343.95;1748497;82;21035;-83
2022/05/29 04:57:57;;;;;;;2.65;1.60;;;;;;;11.06;68.11;99342.15;1748421;82;21116;-82
2022/05/29 05:00:24;;;;;;;1.87;1.50;;;;;;;11.05;68.21;99337.79;1748450;82;21062;-83
2022/05/29 05:02:50;;;;;;;4.72;1.55;;;;;;;11.12;68.87;99341.89;1748153;82;20995;-83
2022/05/29 05:05:17;;;;;;;6.60;1.65;;;;;;;11.19;68.02;99341.66;1748522;82;21090;-82
2022/05/29 05:07:44;;;;;;;5.00;1.50;;;;;;;11.27;68.15;99340.89;1748186;82;23160;-82
2022/05/29 05:10:11;;;;;;;2.92;1.60;;;;;;;11.33;68.01;99356.42;1748248;82;21942;-83
2022/05/29 05:12:39;;;;;;;3.12;1.40;;;;;;;11.34;67.07;99346.30;1747521;81;21007;-82
2022/05/29 05:15:07;;;;;;;5.15;1.52;;;;;;;11.38;66.93;99345.70;1747539;82;21498;-82
2022/05/29 05:17:34;;;;;;;3.47;1.42;;;;;;;11.43;66.83;99348.58;1742395;82;21059;-82
2022/05/29 05:20:04;;;;;;;2.02;1.57;;;;;;;11.51;66.26;99343.81;1741607;82;21058;-83
2022/05/29 05:22:31;;;;;;;4.60;1.25;;;;;;;11.62;66.42;99345.18;1741789;82;21115;-84
2022/05/29 05:24:57;;;;;;;1.85;1.30;;;;;;;11.70;65.76;99349.20;1741445;82;21130;-84
2022/05/29 05:27:24;;;;;;;3.02;1.40;;;;;;;11.76;65.15;99344.13;1741583;82;21083;-82
2022/05/29 05:29:51;;;;;;;1.60;1.17;;;;;;;11.86;64.83;99357.31;1741536;82;21095;-83
2022/05/29 05:32:17;;;;;;;1.95;1.67;;;;;;;11.97;64.84;99354.70;1741722;82;21059;-83
2022/05/29 05:34:44;;;;;;;1.92;1.22;;;;;;;12.08;64.41;99353.79;1741518;82;21174;-84
2022/05/29 05:37:11;;;;;;;2.20;1.52;;;;;;;12.17;64.55;99346.81;1741767;82;21107;-84
2022/05/29 05:39:38;;;;;;;1.55;1.25;;;;;;;12.28;63.57;99348.11;1741687;82;21067;-84
2022/05/29 05:42:06;;;;;;;4.53;1.57;;;;;;;12.39;64.18;99354.63;1741699;82;20992;-83
2022/05/29 05:44:32;;;;;;;6.10;2.00;;;;;;;12.48;64.00;99353.34;1741992;82;21618;-83
2022/05/29 05:46:58;;;;;;;3.33;1.27;;;;;;;12.59;64.48;99356.81;1741640;82;21562;-83
2022/05/29 05:49:25;;;;;;;4.62;1.30;;;;;;;12.69;62.78;99365.17;1742028;82;21731;-84
2022/05/29 05:51:52;;;;;;;1.40;1.27;;;;;;;12.69;62.39;99357.25;1741805;82;21087;-83
2022/05/29 05:54:18;;;;;;;1.45;1.30;;;;;;;12.72;62.71;99360.60;1742152;82;21056;-82
2022/05/29 05:56:47;;;;;;;2.08;1.22;;;;;;;12.79;61.57;99354.58;1741640;82;21107;-83
2022/05/29 05:59:14;;;;;;;3.02;1.00;;;;;;;12.89;61.56;99354.54;1741629;82;21163;-83
2022/05/29 06:01:41;;;;;;;3.25;1.47;;;;;;;13.00;60.50;99346.13;1741748;82;21032;-83
2022/05/29 06:04:09;;;;;;;1.62;1.25;;;;;;;13.07;60.55;99352.83;1741818;82;21095;-83
2022/05/29 06:06:35;;;;;;;2.77;1.10;;;;;;;13.20;59.86;99355.75;1741938;82;21048;-84
2022/05/29 06:09:02;;;;;;;1.87;1.20;;;;;;;13.30;59.58;99359.66;1741619;82;21067;-82
2022/05/29 06:11:29;;;;;;;2.17;1.37;;;;;;;13.37;59.52;99356.28;1741933;82;21100;-83
2022/05/29 06:13:56;;;;;;;1.52;1.02;;;;;;;13.45;60.40;99344.87;1734086;81;21001;-83
2022/05/29 06:16:24;;;;;;;2.52;1.25;;;;;;;13.54;58.60;99349.69;1733744;82;21175;-83
2022/05/29 06:18:51;;;;;;;4.20;1.15;;;;;;;13.56;57.98;99350.94;1733694;82;21087;-83
2022/05/29 06:21:18;;;;;;;3.47;1.12;;;;;;;13.57;58.62;99350.02;1733854;82;21055;-83
2022/05/29 06:23:44;;;;;;;1.77;1.30;;;;;;;13.65;58.21;99352.27;1734125;82;21155;-82
2022/05/29 06:26:12;;;;;;;1.65;1.25;;;;;;;13.75;58.61;99349.09;1733571;82;21020;-83
2022/05/29 06:28:39;;;;;;;2.42;1.00;;;;;;;13.88;58.43;99352.44;1733852;82;21487;-82
2022/05/29 06:31:09;;;;;;;5.03;1.25;;;;;;;14.00;57.88;99357.09;1742785;82;21121;-84
2022/05/29 06:33:37;;;;;;;1.70;1.10;;;;;;;14.08;56.60;99359.35;1747425;82;21073;-82
2022/05/29 06:36:07;;;;;;;4.00;1.22;;;;;;;14.12;55.36;99361.77;1747611;82;21019;-83
2022/05/29 06:38:34;;;;;;;5.33;2.52;;;;;;;14.11;55.44;99360.05;1747540;82;21043;-81
2022/05/29 06:41:07;;;;;;;4.92;1.82;;;;;;;14.17;55.44;99355.37;1747744;82;21066;-82
2022/05/29 06:43:33;;;;;;;3.30;1.45;;;;;;;14.25;55.90;99365.09;1719830;82;21031;-84
2022/05/29 06:46:00;;;;;;;1.45;1.02;;;;;;;14.32;53.57;99357.20;1748083;82;21554;-83
2022/05/29 06:48:27;;;;;;;5.65;1.10;;;;;;;14.34;52.17;99362.42;1747464;82;21220;-82
2022/05/29 06:50:53;;;;;;;2.75;0.98;;;;;;;14.33;52.59;99377.45;1747813;82;21109;-83
2022/05/29 06:53:20;;;;;;;1.65;1.05;;;;;;;14.33;51.99;99371.32;1747330;82;21554;-82
2022/05/29 06:55:54;;;;;;;1.15;0.90;;;;;;;14.31;52.79;99360.33;1747345;82;21319;-83
2022/05/29 06:58:21;;;;;;;3.33;1.20;;;;;;;14.36;52.82;99367.19;1747442;82;21090;-83
2022/05/29 07:09:04;;;;;;;1.80;0.82;;;;;;;14.63;51.96;99366.22;1747989;82;21685;-83
2022/05/29 07:11:35;;;;;;;6.75;2.33;;;;;;;14.74;51.76;99369.13;1747455;82;21019;-83
2022/05/29 07:14:04;;;;;;;2.77;1.60;;;;;;;14.81;51.06;99365.23;1747338;81;21090;-83
2022/05/29 07:16:33;;;;;;;2.02;1.12;;;;;;;14.88;50.94;99374.14;1747280;82;21034;-84
2022/05/29 07:18:59;;;;;;;2.65;1.37;;;;;;;14.93;50.64;99368.12;1745729;82;21099;-84
2022/05/29 07:21:28;;;;;;;2.75;1.52;;;;;;;14.98;50.86;99366.95;1741604;82;21099;-82
2022/05/29 07:23:56;;;;;;;2.02;1.15;;;;;;;15.07;50.83;99368.23;1741495;82;21318;-82
2022/05/29 07:26:23;;;;;;;4.03;1.12;;;;;;;15.15;49.95;99368.66;1741359;82;21093;-83
2022/05/29 07:28:50;;;;;;;5.45;1.15;;;;;;;15.24;50.09;99362.83;1741395;82;21087;-82
2022/05/29 07:31:16;;;;;;;4.00;1.27;;;;;;;15.35;49.84;99370.19;1741685;82;21083;-84
2022/05/29 07:33:43;;;;;;;1.98;1.20;;;;;;;15.43;48.85;99372.39;1741719;82;21079;-84
2022/05/29 07:36:11;;;;;;;5.35;1.25;;;;;;;15.46;48.59;99380.17;1741679;82;21059;-83
2022/05/29 07:38:38;;;;;;;1.47;1.12;;;;;;;15.49;48.42;99378.67;1741532;82;21152;-82
2022/05/29 07:43:18;;;;;;;3.92;1.27;;;;;;;15.49;48.30;99380.48;1741890;82;21044;-82
2022/05/29 07:43:33;;;;;;;7.50;1.07;;;;;;;15.52;49.07;99392.24;1737759;82;21122;-81
2022/05/29 07:46:00;;;;;;;4.20;1.05;;;;;;;15.59;48.38;99381.18;1741630;82;21110;-82
2022/05/29 07:48:28;;;;;;;1.60;1.12;;;;;;;15.66;47.20;99383.00;1741583;82;21041;-82
2022/05/29 07:50:55;;;;;;;4.53;1.42;;;;;;;15.73;48.71;99376.87;1741737;82;21762;-82
2022/05/29 07:53:21;;;;;;;1.35;1.05;;;;;;;15.85;48.03;99392.10;1741707;82;21032;-82
2022/05/29 07:55:48;;;;;;;1.55;1.10;;;;;;;15.93;46.46;99384.55;1741456;82;21319;-82
2022/05/29 07:58:16;;;;;;;3.20;1.10;;;;;;;15.92;46.73;99385.52;1741737;82;21162;-82
2022/05/29 08:00:43;;;;;;;2.45;1.90;;;;;;;15.97;47.00;99382.11;1741591;82;21138;-83
2022/05/29 08:03:10;;;;;;;3.15;1.52;;;;;;;16.07;46.57;99388.19;1741575;82;21211;-85
2022/05/29 08:05:37;;;;;;;2.55;0.82;;;;;;;16.13;44.72;99383.37;1741449;82;21075;-83
2022/05/29 08:08:08;;;;;;;3.08;1.60;;;;;;;16.18;45.25;99382.26;1741614;82;21016;-81
2022/05/29 08:10:35;;;;;;;4.08;1.20;;;;;;;16.24;45.08;99382.74;1741709;82;21098;-81
2022/05/29 08:13:02;;;;;;;2.08;1.05;;;;;;;16.28;44.78;99386.91;1739234;81;21029;-82
2022/05/29 08:15:30;;;;;;;1.25;1.00;;;;;;;16.39;46.44;99385.40;1733979;82;21150;-82
2022/05/29 08:17:57;;;;;;;3.42;1.45;;;;;;;16.55;46.19;99380.02;1733605;82;21108;-79
2022/05/29 08:20:24;;;;;;;4.97;1.40;;;;;;;16.74;45.66;99380.57;1734320;82;21052;-82
2022/05/29 08:22:50;;;;;;;1.07;0.90;;;;;;;16.89;44.16;99397.40;1733716;82;21523;-82
2022/05/29 08:30:51;;;;;;;1.42;1.27;;;;;;;16.76;42.91;99389.33;1733919;82;20259;-81
2022/05/29 08:33:26;;;;;;;1.15;1.00;;;;;;;16.72;43.22;99389.97;1742182;81;22285;-82
2022/05/29 08:36:08;;;;;;;3.05;1.20;;;;;;;16.72;43.33;99387.30;1747322;82;21011;-84
2022/05/29 08:38:40;;;;;;;2.98;0.90;;;;;;;16.82;44.32;99390.73;1747552;82;21027;-82
2022/05/29 08:41:10;;;;;;;2.17;0.72;;;;;;;16.99;43.50;99393.20;1747557;82;21200;-82
2022/05/29 08:43:39;;;;;;;1.85;0.80;;;;;;;17.15;43.38;99386.95;1747592;82;21003;-81
2022/05/29 08:46:16;;;;;;;1.02;0.80;;;;;;;17.33;44.33;99388.42;1747567;82;21600;-82
2022/05/29 08:48:44;;;;;;;2.58;1.20;;;;;;;17.50;42.20;99402.41;1747437;82;38023;-81
2022/05/29 08:51:50;;;;;;;1.12;0.70;;;;;;;17.48;41.50;99391.02;1747509;82;21117;-81
2022/05/29 08:54:52;;;;;;;2.20;0.70;;;;;;;17.43;41.95;99381.55;1747752;82;21108;-80
2022/05/29 08:57:57;;;;;;;3.70;1.15;;;;;;;17.44;41.56;99369.94;1747290;82;20991;-81
2022/05/29 09:00:59;;;;;;;3.83;1.00;;;;;;;17.50;40.38;99391.77;1727382;82;21952;-82
2022/05/29 09:04:03;;;;;;;2.02;0.90;;;;;;;17.52;41.36;99376.58;1747406;82;21483;-81
2022/05/29 09:06:47;;;;;;;2.87;0.98;;;;;;;17.61;40.89;99385.27;1747691;82;21161;-82
2022/05/29 09:09:40;;;;;;;1.77;0.80;;;;;;;17.69;39.70;99386.95;1747790;82;21743;-82
2022/05/29 09:12:12;;;;;;;0.85;0.70;;;;;;;17.65;39.94;99380.11;1747439;82;21118;-82
2022/05/29 09:15:08;;;;;;;3.17;1.07;;;;;;;17.73;40.63;99380.95;1752138;81;21110;-81
2022/05/29 09:17:51;;;;;;;4.97;0.95;;;;;;;17.84;40.48;99386.41;1728189;81;21015;-81
2022/05/29 09:20:41;;;;;;;3.98;0.88;;;;;;;17.93;38.61;99384.97;1753418;81;20983;-82
2022/05/29 09:23:08;;;;;;;2.98;0.70;;;;;;;17.93;40.74;99374.33;1752983;81;21130;-82
2022/05/29 09:25:39;;;;;;;3.37;0.98;;;;;;;17.99;39.03;99386.74;1752758;81;21003;-82
2022/05/29 09:28:34;;;;;;;3.02;0.90;;;;;;;17.94;38.24;99377.38;1753029;81;21094;-82
2022/05/29 09:31:11;;;;;;;1.75;0.82;;;;;;;17.87;39.30;99379.59;1747960;82;21600;-82
2022/05/29 09:33:38;;;;;;;2.90;0.80;;;;;;;17.90;37.59;99382.52;1750253;82;21035;-80
2022/05/29 09:36:37;;;;;;;3.75;0.90;;;;;;;17.89;38.09;99387.48;1713902;83;22267;-81
2022/05/29 09:39:08;;;;;;;1.20;0.90;;;;;;;17.91;38.50;99396.20;1713766;83;21565;-82
2022/05/29 09:41:41;;;;;;;0.70;0.60;;;;;;;17.88;38.24;99381.28;1750506;81;21087;-82
2022/05/29 09:44:14;;;;;;;2.00;0.80;;;;;;;17.93;39.25;99373.00;1750014;82;21059;-81
2022/05/29 09:46:47;;;;;;;2.22;1.10;;;;;;;18.07;38.77;99386.23;1750069;81;21170;-81
2022/05/29 09:49:45;;;;;;;1.60;0.75;;;;;;;18.22;37.61;99392.30;1714022;83;21180;-80
2022/05/29 09:52:18;;;;;;;1.22;0.70;;;;;;;18.13;36.90;99375.64;1713952;83;21027;-84
2022/05/29 09:55:15;;;;;;;0.95;0.68;;;;;;;18.05;36.79;99370.82;1713728;83;21125;-83
2022/05/29 09:58:00;;;;;;;1.37;0.57;;;;;;;18.08;36.87;99369.29;1714504;83;21153;-83
2022/05/29 10:00:42;;;;;;;2.00;0.70;;;;;;;18.18;36.27;99376.17;1713904;83;21109;-82
2022/05/29 10:03:16;;;;;;;2.25;0.60;;;;;;;18.24;37.39;99378.88;1714322;83;21619;-82
2022/05/29 10:05:43;;;;;;;4.17;1.35;;;;;;;18.40;38.54;99376.87;1712004;83;21067;-81
2022/05/29 10:08:30;;;;;;;0.95;0.53;;;;;;;18.60;35.32;99389.30;1714202;83;21130;-82
2022/05/29 10:11:15;;;;;;;4.60;0.70;;;;;;;18.63;35.68;99393.09;1750094;82;21569;-81
2022/05/29 10:13:43;;;;;;;0.50;0.40;;;;;;;18.69;35.86;99392.64;1714189;83;21075;-82
2022/05/29 10:16:11;;;;;;;0.95;0.47;;;;;;;18.67;34.73;99378.58;1714070;83;22341;-83
2022/05/29 10:18:40;;;;;;;0.93;0.50;;;;;;;18.60;35.20;99374.65;1714016;83;21063;-82
2022/05/29 10:21:17;;;;;;;1.27;0.50;;;;;;;18.62;34.90;99374.05;1713914;83;21004;-82
2022/05/29 10:23:54;;;;;;;1.02;0.70;;;;;;;18.69;36.38;99384.64;1714219;83;21158;-82
2022/05/29 10:26:32;;;;;;;0.90;0.60;;;;;;;18.85;36.13;99383.13;1714198;83;21055;-81
2022/05/29 10:29:00;;;;;;;2.98;0.50;;;;;;;18.96;35.24;99383.69;1714243;83;21113;-82
2022/05/29 10:31:37;;;;;;;2.17;0.60;;;;;;;18.94;34.38;99384.63;1710549;83;21477;-83
2022/05/29 10:34:10;;;;;;;0.78;0.60;;;;;;;19.03;34.83;99371.60;1719216;82;21148;-81
2022/05/29 10:36:37;;;;;;;1.27;0.50;;;;;;;19.15;34.81;99389.41;1748611;82;21532;-81
2022/05/29 10:39:22;;;;;;;0.85;0.60;;;;;;;19.21;34.18;99402.28;1748582;82;21607;-82
2022/05/29 10:41:51;;;;;;;3.80;0.70;;;;;;;19.23;33.69;99387.04;1748624;82;22159;-82
2022/05/29 10:44:51;;;;;;;2.72;0.80;;;;;;;19.16;33.08;99385.76;1748560;82;20998;-82
2022/05/29 10:47:29;;;;;;;3.85;2.00;;;;;;;19.03;34.14;99396.94;1748593;82;21127;-81
2022/05/29 10:50:24;;;;;;;2.20;1.80;;;;;;;18.99;34.94;99388.80;1748821;82;21064;-81
2022/05/29 10:53:08;;;;;;;1.42;0.65;;;;;;;19.00;34.63;99383.85;1748691;82;21093;-82
2022/05/29 10:55:49;;;;;;;0.93;0.77;;;;;;;19.14;35.17;99392.19;1748891;82;21156;-81
2022/05/29 10:58:45;;;;;;;0.60;0.60;;;;;;;19.38;33.70;99385.53;1748356;82;21096;-82
2022/05/29 11:04:49;;;;;;;2.00;0.72;;;;;;;19.68;32.93;99377.92;1748507;82;21128;-81
2022/05/29 11:07:40;;;;;;;1.30;0.95;;;;;;;19.65;32.42;99375.97;1748538;82;21167;-82
2022/05/29 11:10:35;;;;;;;0.90;0.60;;;;;;;19.63;32.74;99370.73;1748621;82;21568;-81
2022/05/29 11:13:29;;;;;;;1.32;0.70;;;;;;;19.79;32.73;99366.98;1748407;82;21032;-81
2022/05/29 11:16:22;;;;;;;2.95;0.50;;;;;;;19.95;32.10;99374.66;1745100;82;21576;-81
2022/05/29 11:19:06;;;;;;;0.93;0.57;;;;;;;20.00;32.65;99376.01;1745985;82;21053;-80
2022/05/29 11:21:54;;;;;;;2.47;0.50;;;;;;;20.00;31.19;99378.68;1746267;82;21117;-82
2022/05/29 11:24:30;;;;;;;1.30;0.70;;;;;;;19.84;31.33;99372.82;1745835;82;21049;-83
2022/05/29 11:27:27;;;;;;;0.70;0.62;;;;;;;19.66;31.16;99370.52;1725476;82;20969;-81
2022/05/29 11:30:03;;;;;;;0.93;0.50;;;;;;;19.58;31.24;99365.39;1740758;82;21067;-82
2022/05/29 11:32:56;;;;;;;1.22;0.72;;;;;;;19.55;31.32;99370.48;1741621;82;21070;-81
2022/05/29 11:35:34;;;;;;;1.32;0.68;;;;;;;19.53;32.29;99362.21;1741651;82;21051;-81
2022/05/29 11:38:33;;;;;;;1.70;0.57;;;;;;;19.70;31.81;99373.80;1741661;82;21134;-82
2022/05/29 11:41:07;;;;;;;2.20;0.60;;;;;;;19.90;31.39;99376.34;1741425;82;21510;-82
2022/05/29 11:43:51;;;;;;;0.80;0.60;;;;;;;20.03;31.23;99367.77;1741940;82;21040;-81
2022/05/29 11:52:34;;;;;;;2.12;0.62;;;;;;;19.86;30.52;99382.40;1741319;82;21148;-81
2022/05/29 11:55:22;;;;;;;2.45;0.53;;;;;;;19.71;31.11;99377.34;1741848;82;21550;-82
2022/05/29 11:57:56;;;;;;;0.75;0.60;;;;;;;19.71;30.48;99380.02;1741887;82;21063;-81
2022/05/29 12:00:37;;;;;;;1.42;1.00;;;;;;;19.81;30.88;99370.38;1742298;82;21047;-81
2022/05/29 12:03:21;;;;;;;2.27;1.67;;;;;;;19.99;32.60;99363.64;1741444;82;21119;-81
2022/05/29 12:05:53;;;;;;;7.77;4.50;;;;;;;20.28;31.71;99360.55;1742055;82;21519;-81
2022/05/29 12:08:28;;;;;;;3.30;2.52;;;;;;;20.51;31.25;99349.88;1718328;82;21079;-82
2022/05/29 12:11:23;;;;;;;1.00;0.82;;;;;;;20.71;31.75;99343.86;1742061;82;21055;-82
2022/05/29 12:14:12;;;;;;;1.12;0.40;;;;;;;20.84;29.99;99358.91;1742306;81;21558;-81
2022/05/29 12:16:42;;;;;;;2.75;0.62;;;;;;;20.73;28.09;99360.62;1743320;82;21016;-82
2022/05/29 12:19:19;;;;;;;0.68;0.42;;;;;;;20.58;29.33;99353.78;1747650;82;21517;-82
2022/05/29 12:21:53;;;;;;;5.17;0.50;;;;;;;20.64;29.27;99347.13;1747787;81;21603;-82
2022/05/29 12:24:25;;;;;;;0.80;0.50;;;;;;;20.73;28.50;99352.59;1721557;82;21427;-82
2022/05/29 12:27:12;;;;;;;0.72;0.50;;;;;;;20.63;28.87;99365.00;1747770;82;21130;-81
2022/05/29 12:29:56;;;;;;;3.05;0.50;;;;;;;20.52;29.19;99359.11;1747833;81;21129;-82
2022/05/29 12:32:30;;;;;;;1.57;0.50;;;;;;;20.59;29.71;99360.81;1745470;82;21150;-82
2022/05/29 12:35:16;;;;;;;2.05;0.60;;;;;;;20.74;28.89;99359.63;1748512;82;21579;-83
2022/05/29 12:38:04;;;;;;;1.00;0.70;;;;;;;20.74;28.34;99351.61;1748374;82;22172;-82
2022/05/29 12:40:57;;;;;;;2.30;0.50;;;;;;;20.76;30.24;99352.36;1748491;82;21074;-81